Flight Track Log - Related Links

Times and Time Zones

All times are in EDT time to prevent confusion due to time zone crossing. See the EJA566 flight status page for this flight to view local times or setup timezone preferences in your user account.

Time Position Orientation Groundspeed Altitude Reporting Facility
EDT Latitude Longitude Course Direction KTS MPH feet Rate Location/Type
Mon 05:56:50 PM 38.5231 -122.8178 North 148 170 1,300  Level Oakland Center
Mon 05:57:52 PM 38.5853 -122.8631 330° Northwest 225 259 5,000 3,610 Climbing Oakland Center
Mon 05:58:53 PM 38.6497 -122.9044 333° Northwest 254 292 8,700 3,268 Climbing Oakland Center
Mon 05:59:00 PM 39.0965 -122.7841 North  Level Estimated
Mon 05:59:55 PM 38.7317 -122.9042 360° North 293 337 11,700  Level Oakland Center
Mon 06:00:00 PM 39.1944 -122.7792 North  Level Estimated
Mon 06:00:56 PM 38.8161 -122.9000 North 300 345 14,400  Level Oakland Center
Mon 06:01:00 PM 39.2924 -122.7744 North  Level Estimated
Mon 06:01:58 PM 38.9053 -122.8978 North 319 367 16,900  Level Oakland Center
Mon 06:02:00 PM 39.3903 -122.7695 North  Level Estimated
Mon 06:02:59 PM 38.9953 -122.8936 North 324 373 19,100  Level Oakland Center
Mon 06:04:01 PM 39.0892 -122.8897 North 335 386 21,400 2,000 Climbing Oakland Center
Mon 06:05:02 PM 39.1847 -122.8850 North 341 392 23,200 1,918 Climbing Oakland Center
Mon 06:06:03 PM 39.3053 -122.8808 North 359 413 25,300 1,659 Climbing Oakland Center
Mon 06:07:05 PM 39.4089 -122.8772 North 370 426 26,600 1,220 Climbing Oakland Center
Mon 06:08:06 PM 39.5078 -122.8719 North 387 445 27,800 1,171 Climbing Oakland Center
Mon 06:09:08 PM 39.6203 -122.8672 North 401 461 29,000 1,220 Climbing Oakland Center
Mon 06:10:09 PM 39.7342 -122.8592 North 406 467 30,300 1,230 Climbing Oakland Center
Mon 06:11:10 PM 39.8714 -122.8206 12° North 417 480 31,500 1,122 Climbing Oakland Center
Mon 06:12:12 PM 39.9858 -122.7875 12° North 420 483 32,600 1,024 Climbing Oakland Center
Mon 06:13:13 PM 40.0997 -122.7819 North 408 470 33,600 1,033 Climbing Oakland Center
Mon 06:14:14 PM 40.2133 -122.7783 North 405 466 34,700 1,033 Climbing Oakland Center
Mon 06:15:15 PM 40.3283 -122.7747 North 409 471 35,700 1,024 Climbing Oakland Center
Mon 06:16:17 PM 40.4442 -122.7703 North 412 474 36,800 1,024 Climbing Oakland Center
Mon 06:17:18 PM 40.5608 -122.7675 North 416 479 37,800 1,033 Climbing Oakland Center
Mon 06:18:19 PM 40.6764 -122.7636 North 415 478 38,900 1,024 Climbing Oakland Center
Mon 06:19:21 PM 40.7914 -122.7603 North 413 475 39,900 976 Climbing Oakland Center
Mon 06:20:22 PM 40.9061 -122.7561 North 413 475 40,900 1,033 Climbing Oakland Center
Mon 06:21:23 PM 41.0181 -122.7533 North 404 465 42,000 1,024 Climbing Oakland Center
Mon 06:22:25 PM 41.1303 -122.7508 North 403 464 43,000 606 Climbing Oakland Center
Mon 06:23:02 PM 41.2211 -122.7475 North 408 470 43,000  Level Seattle Center
Mon 06:24:03 PM 41.3372 -122.7442 North 416 479 43,000  Level Seattle Center
Mon 06:25:04 PM 41.4417 -122.7394 North 412 474 43,000  Level Seattle Center
Mon 06:26:05 PM 41.5547 -122.7358 North 407 468 43,000  Level Seattle Center
Mon 06:27:06 PM 41.6669 -122.7303 North 405 466 43,000  Level Seattle Center
Mon 06:28:07 PM 41.7786 -122.7272 North 401 461 43,000  Level Seattle Center
Mon 06:29:08 PM 41.8886 -122.7231 North 397 457 43,000  Level Seattle Center
Mon 06:30:09 PM 41.9972 -122.7208 North 387 445 43,000  Level Seattle Center
Mon 06:31:10 PM 42.1075 -122.7172 North 390 449 43,000  Level Seattle Center
Mon 06:32:11 PM 42.2397 -122.7117 North 391 450 43,000  Level Seattle Center
Mon 06:33:13 PM 42.3497 -122.7075 North 393 452 43,000  Level Seattle Center
Mon 06:34:14 PM 42.4600 -122.7031 North 395 455 43,000  Level Seattle Center
Mon 06:35:15 PM 42.5700 -122.6994 North 395 455 43,000  Level Seattle Center
Mon 06:36:15 PM 42.6803 -122.6961 North 395 455 43,000  Level Seattle Center
Mon 06:37:16 PM 42.7783 -122.6947 North 396 456 43,000  Level Seattle Center
Mon 06:38:17 PM 42.8889 -122.6892 North 398 458 43,000  Level Seattle Center
Mon 06:39:18 PM 43.0222 -122.6836 North 400 460 43,000  Level Seattle Center
Mon 06:40:20 PM 43.1328 -122.6806 North 398 458 43,000  Level Seattle Center
Mon 06:41:21 PM 43.2439 -122.6772 North 399 459 43,000  Level Seattle Center
Mon 06:42:22 PM 43.3536 -122.6736 North 397 457 43,000  Level Seattle Center
Mon 06:43:23 PM 43.4647 -122.6717 North 400 460 43,000  Level Seattle Center
Mon 06:44:24 PM 43.5764 -122.6669 North 402 463 43,000  Level Seattle Center
Mon 06:45:25 PM 43.6889 -122.6636 North 404 465 43,000  Level Seattle Center
Mon 06:46:26 PM 43.8014 -122.6594 North 404 465 43,000  Level Seattle Center
Mon 06:47:27 PM 43.9131 -122.6556 North 403 464 43,000  Level Seattle Center
Mon 06:48:28 PM 44.0256 -122.6519 North 405 466 43,000  Level Seattle Center
Mon 06:49:29 PM 44.1353 -122.6489 North 399 459 43,000  Level Seattle Center
Mon 06:50:29 PM 44.2678 -122.6439 North 398 458 43,000  Level Seattle Center
Mon 06:51:30 PM 44.3781 -122.6389 North 398 458 43,000  Level Seattle Center
Mon 06:52:31 PM 44.4864 -122.6361 North 395 455 43,000  Level Seattle Center
Mon 06:53:32 PM 44.5964 -122.6319 North 395 455 43,000  Level Seattle Center
Mon 06:54:33 PM 44.7075 -122.6286 North 399 459 43,000  Level Seattle Center
Mon 06:55:34 PM 44.8172 -122.6244 North 398 458 43,000  Level Seattle Center
Mon 06:56:35 PM 44.9369 -122.6219 North 395 455 43,000  Level Seattle Center
Mon 06:57:36 PM 45.0464 -122.6167 North 395 455 43,000  Level Seattle Center
Mon 06:58:37 PM 45.1564 -122.6131 North 398 458 43,000  Level Seattle Center
Mon 06:59:40 PM 45.2656 -122.6092 North 397 457 43,000  Level Seattle Center
Mon 07:00:41 PM 45.3747 -122.6044 North 395 455 43,000  Level Seattle Center
Mon 07:01:42 PM 45.4853 -122.6014 North 399 459 43,000 -443 Level Seattle Center
Mon 07:02:43 PM 45.5947 -122.5978 North 397 457 42,100 -1,180 Descending Seattle Center
Mon 07:03:44 PM 45.7033 -122.5919 North 394 453 40,600 -1,623 Descending Seattle Center
Mon 07:04:45 PM 45.8383 -122.6136 354° North 404 465 38,800 -2,066 Descending Seattle Center
Mon 07:05:46 PM 45.9475 -122.6394 351° North 400 460 36,400 -2,410 Descending Seattle Center
Mon 07:06:47 PM 46.0531 -122.6664 350° North 391 450 33,900 -2,361 Descending Seattle Center
Mon 07:07:48 PM 46.1539 -122.6861 352° North 371 427 31,600 -2,132 Descending Seattle Center
Mon 07:08:48 PM 46.2597 -122.7075 352° North 382 440 29,600 -1,983 Descending Seattle Center
Mon 07:09:49 PM 46.3744 -122.7217 355° North 419 482 27,600 -2,016 Descending Seattle Center
Mon 07:10:50 PM 46.4958 -122.7300 357° North 440 506 25,500 -2,311 Descending Seattle Center
Mon 07:11:51 PM 46.6106 -122.7342 359° North 417 480 22,900 -2,607 Descending Seattle Center
Mon 07:12:52 PM 46.7189 -122.7372 359° North 395 455 20,200 -2,792 Descending Seattle Center
Mon 07:13:32 PM 46.8028 -122.7158 10° North 386 444 18,200 -2,852 Descending Seattle Center
Mon 07:13:53 PM 46.8303 -122.6872 35° Northeast 402 463 17,300 -2,400 Descending Seattle Center
Mon 07:13:57 PM 46.8364 -122.6819 31° Northeast 394 453 17,200 -2,262 Descending Seattle Center
Mon 07:14:54 PM 46.9214 -122.5814 39° Northeast 384 442 15,000 -2,164 Descending Seattle Center
Mon 07:14:58 PM 46.9197 -122.5819 193° South 385 443 15,000 -2,066 Level Seattle Center
Mon 07:15:55 PM 47.0106 -122.5325 20° North 342 394 12,900 -2,182 Descending Seattle Center
Mon 07:16:04 PM 47.0253 -122.5344 355° North 335 386 12,600 -1,971 Descending Seattle Center
Mon 07:17:05 PM 47.1222 -122.5306 North 344 396 10,600 -1,393 Descending Seattle Center
Mon 07:17:56 PM 47.1950 -122.5278 North 318 366 10,000 -590 Descending Seattle Center
Mon 07:18:06 PM 47.2064 -122.5303 352° North 298 343 10,000 -295 Level Seattle Center
Mon 07:18:57 PM 47.2764 -122.5300 360° North 295 339 9,700 -590 Descending Seattle Center
Mon 07:19:07 PM 47.2889 -122.5311 357° North 287 330 9,400 -1,594 Descending Seattle Center
Mon 07:20:01 PM 47.3667 -122.5314 360° North 299 344 8,000 -1,554 Descending Seattle Center
Mon 07:20:59 PM 47.4394 -122.5275 North 287 330 6,500 -1,672 Descending Seattle Center
Mon 07:21:02 PM 47.4456 -122.5275 360° North 283 326 6,300 -492 Descending Seattle Center
Mon 07:22:00 PM 47.5156 -122.5081 11° North 276 318 6,000 -295 Descending Seattle Center
Mon 07:22:03 PM 47.5208 -122.5092 352° North 273 314 6,000 -800 Level Seattle Center
Mon 07:23:00 PM 47.5939 -122.4906 10° North 281 323 5,200 -787 Descending Seattle Center
Mon 07:23:04 PM 47.6003 -122.4886 12° North 285 328 5,200 -197 Level Seattle Center
Mon 07:24:01 PM 47.6544 -122.4492 26° Northeast 238 274 5,000 -197 Descending Seattle Center
Mon 07:24:05 PM 47.6586 -122.4467 22° Northeast 220 253 5,000 -1,082 Level Seattle Center
Mon 07:25:02 PM 47.6750 -122.3567 75° East 223 257 3,900 -1,100 Descending Seattle Center
Mon 07:25:05 PM 47.6761 -122.3581 320° Northwest 211 243 3,900 -656 Level Seattle Center
Mon 07:26:06 PM 47.6506 -122.3094 128° Southeast 158 182 3,200 -362 Descending Seattle Center
Mon 07:27:01 PM 47.6111 -122.3117 182° South 144 166 3,200  Level Seattle Center
Mon 07:27:04 PM 47.6072 -122.3100 164° South 153 176 3,200 -375 Level Seattle Center
Mon 07:28:05 PM 47.5636 -122.3097 180° South 155 178 2,800 -474 Descending Seattle Center
Mon 07:28:20 PM 47.5550 -122.3097 180° South 156 180 2,600 -984 Descending Seattle Center
Mon 07:29:06 PM 47.5206 -122.3108 181° South 155 178 1,800 -1,000 Descending Seattle Center
Mon 07:29:08 PM 47.5175 -122.3108 180° South 154 177 1,800 -700 Level Seattle Center
Mon 07:30:06 PM 47.4875 -122.3114 181° South 123 142 1,100 -740 Descending Seattle Center
Mon 07:30:21 PM 47.4800 -122.3119 183° South 111 128 900 -689 Descending Seattle Center
Mon 07:31:07 PM 47.4567 -122.3122 180° South 113 130 400 -652 Descending Seattle Center

Login

Don't have an account? Register now (free) for customized features, flight alerts, and more!